Time;durP1;ratioP1;P1;durP2;ratioP2;P2;SDS_P1;SDS_P2;PMS_P1;PMS_P2;Temp;Humidity;BMP_temperature;BMP_pressure;BME280_temperature;BME280_humidity;BME280_pressure;Samples;Min_cycle;Max_cycle;Signal;HPM_P1;HPM_P2
2022/06/03 00:01:31;;;;;;;12.38;7.68;;;;;;;17.84;74.20;99111.00;4972479;28;20034;-70
2022/06/03 00:04:10;;;;;;;11.88;6.68;;;;;;;17.81;74.13;99098.97;4972164;28;20125;-70
2022/06/03 00:06:53;;;;;;;9.13;7.78;;;;;;;17.77;74.37;99089.91;4971791;28;20074;-68
2022/06/03 00:09:29;;;;;;;11.65;6.50;;;;;;;17.78;74.53;99096.09;4954440;28;20444;-69
2022/06/03 00:12:32;;;;;;;9.55;6.65;;;;;;;17.75;74.85;99096.63;4971583;28;20046;-70
2022/06/03 00:15:12;;;;;;;8.98;6.65;;;;;;;17.73;74.94;99096.13;4971794;28;20162;-70
2022/06/03 00:17:56;;;;;;;8.27;7.13;;;;;;;17.68;75.10;99092.44;4971899;28;20039;-70
2022/06/03 00:20:55;;;;;;;10.80;7.03;;;;;;;17.66;75.68;99091.94;4971650;28;20101;-70
2022/06/03 00:23:42;;;;;;;11.25;7.38;;;;;;;17.66;75.59;99091.16;4972219;28;20053;-70
2022/06/03 00:26:28;;;;;;;9.50;7.22;;;;;;;17.66;75.60;99086.56;4960335;28;20038;-70
2022/06/03 00:29:00;;;;;;;9.18;6.88;;;;;;;17.67;75.42;99090.84;4957697;28;20126;-71
2022/06/03 00:31:35;;;;;;;10.38;7.22;;;;;;;17.66;75.33;99091.16;4975836;28;20066;-70
2022/06/03 00:34:30;;;;;;;8.70;7.55;;;;;;;17.64;75.52;99079.91;4958271;28;20050;-70
2022/06/03 00:37:29;;;;;;;10.80;7.28;;;;;;;17.61;75.88;99080.50;4958404;28;20051;-70
2022/06/03 00:40:07;;;;;;;9.52;7.45;;;;;;;17.57;76.15;99079.50;4958332;28;20137;-70
2022/06/03 00:42:43;;;;;;;10.05;7.25;;;;;;;17.56;76.06;99083.25;4958545;28;20049;-70
2022/06/03 00:45:24;;;;;;;11.25;7.35;;;;;;;17.55;76.18;99089.69;4975415;28;20043;-71
2022/06/03 00:48:01;;;;;;;12.07;7.47;;;;;;;17.53;76.37;99087.31;4975375;28;20043;-70
2022/06/03 00:51:01;;;;;;;14.65;8.13;;;;;;;17.51;76.53;99094.06;4975132;28;20043;-70
2022/06/03 00:53:50;;;;;;;15.55;8.40;;;;;;;17.47;76.90;99093.81;4974935;28;20051;-71
2022/06/03 00:56:50;;;;;;;11.73;7.63;;;;;;;17.48;76.84;99095.44;4962027;28;20078;-70
2022/06/03 00:59:17;;;;;;;11.07;8.50;;;;;;;17.49;76.90;99100.47;4926203;28;20054;-72
2022/06/03 01:02:00;;;;;;;11.43;8.20;;;;;;;17.51;76.95;99102.88;4973482;28;20420;-71
2022/06/03 01:04:39;;;;;;;13.45;9.02;;;;;;;17.56;76.71;99110.03;4976513;28;20045;-71
2022/06/03 01:07:30;;;;;;;13.32;8.77;;;;;;;17.63;76.43;99097.09;4926099;28;20141;-70
2022/06/03 01:10:14;;;;;;;10.80;7.90;;;;;;;17.65;76.62;99100.28;4966826;28;20050;-69
2022/06/03 01:13:04;;;;;;;14.13;8.73;;;;;;;17.65;76.47;99095.72;4941701;28;20046;-71
2022/06/03 01:15:38;;;;;;;20.13;8.60;;;;;;;17.69;76.21;99096.72;4975171;28;20101;-71
2022/06/03 01:18:21;;;;;;;11.57;8.20;;;;;;;17.73;76.32;99101.50;4941783;28;20070;-70
2022/06/03 01:21:28;;;;;;;12.27;8.43;;;;;;;17.73;76.31;99096.91;4957806;28;20523;-70
2022/06/03 01:24:38;;;;;;;12.68;8.60;;;;;;;17.78;76.40;99088.03;4921951;28;20339;-71
2022/06/03 01:27:25;;;;;;;10.65;7.70;;;;;;;17.96;75.72;99089.91;4934059;29;20044;-70
2022/06/03 01:30:08;;;;;;;14.35;8.73;;;;;;;18.25;74.60;99078.94;4933748;29;20099;-71
2022/06/03 01:33:11;;;;;;;15.13;8.07;;;;;;;18.47;73.71;99080.97;4946645;28;20444;-70
2022/06/03 01:36:11;;;;;;;12.57;7.72;;;;;;;18.43;73.60;99088.00;4973927;28;20436;-71
2022/06/03 01:39:02;;;;;;;13.38;8.90;;;;;;;18.34;73.93;99077.16;4974514;28;20403;-70
2022/06/03 01:41:46;;;;;;;13.15;8.05;;;;;;;18.26;74.34;99072.47;4941804;28;20050;-70
2022/06/03 01:44:27;;;;;;;11.55;8.82;;;;;;;18.20;74.60;99079.03;4956902;28;20587;-70
2022/06/03 01:47:31;;;;;;;14.98;8.98;;;;;;;18.14;74.85;99069.47;4974575;28;20415;-69
2022/06/03 01:50:00;;;;;;;13.75;8.65;;;;;;;18.13;74.79;99076.72;4957440;28;20053;-69
2022/06/03 01:52:50;;;;;;;16.05;8.70;;;;;;;18.11;75.06;99072.75;4957065;28;20053;-70
2022/06/03 01:55:37;;;;;;;17.65;9.40;;;;;;;18.12;75.14;99077.03;4956800;28;20077;-70
2022/06/03 01:58:33;;;;;;;13.88;9.40;;;;;;;18.13;75.15;99076.72;4974437;28;20042;-70
2022/06/03 02:01:08;;;;;;;12.55;8.88;;;;;;;18.19;74.94;99082.81;4974353;28;20050;-71
2022/06/03 02:03:52;;;;;;;15.52;9.20;;;;;;;18.50;74.49;99088.44;4974617;28;20416;-70
2022/06/03 02:06:43;;;;;;;13.68;8.30;;;;;;;19.33;71.28;99084.94;4956796;28;20525;-70
2022/06/03 02:09:46;;;;;;;12.60;8.38;;;;;;;20.08;68.59;99078.88;4974251;28;20045;-70
2022/06/03 02:12:40;;;;;;;12.48;7.38;;;;;;;20.42;66.93;99072.09;4956578;28;20641;-70
2022/06/03 02:15:06;;;;;;;13.93;8.27;;;;;;;20.43;66.89;99070.97;4956457;28;20057;-70
2022/06/03 02:18:30;;;;;;;14.48;9.05;;;;;;;20.61;66.30;99061.09;4973937;28;20050;-70
2022/06/03 02:21:20;;;;;;;14.73;9.00;;;;;;;20.85;65.47;99066.06;4914009;29;20052;-70
2022/06/03 02:23:51;;;;;;;;;;;;;;;21.06;64.76;99064.41;4971807;28;20051;-71
2022/06/03 02:26:38;;;;;;;14.57;9.43;;;;;;;21.23;64.34;99065.53;4973811;28;19948;-70
2022/06/03 02:32:35;;;;;;;18.92;9.35;;;;;;;22.14;61.40;99069.91;4959151;28;20046;-71
2022/06/03 02:35:23;;;;;;;20.73;9.65;;;;;;;22.68;59.82;99061.34;4973290;28;20105;-70
2022/06/03 02:38:04;;;;;;;19.08;9.50;;;;;;;23.11;58.50;99058.41;4973627;28;20556;-69
2022/06/03 02:40:42;;;;;;;20.23;9.55;;;;;;;23.22;58.07;99056.09;4973231;28;20060;-71
2022/06/03 02:43:14;;;;;;;19.77;9.85;;;;;;;23.37;57.32;99059.34;4973746;28;20042;-70
2022/06/03 02:45:45;;;;;;;18.20;9.93;;;;;;;23.72;56.48;99062.56;4973286;28;20481;-70
2022/06/03 02:48:30;;;;;;;18.00;10.35;;;;;;;23.71;56.37;99061.00;4955817;28;20046;-70
2022/06/03 02:51:14;;;;;;;18.92;9.43;;;;;;;24.06;55.53;99060.63;4972951;28;20047;-70
2022/06/03 02:54:18;;;;;;;24.42;9.98;;;;;;;24.17;55.14;99051.75;4988187;28;20043;-69
2022/06/03 02:57:05;;;;;;;22.95;9.95;;;;;;;24.05;55.18;99056.38;4955469;28;20635;-69
2022/06/03 03:00:02;;;;;;;16.35;9.90;;;;;;;23.78;55.63;99063.94;4972978;28;20537;-70
2022/06/03 03:02:56;;;;;;;15.32;10.32;;;;;;;23.88;55.88;99054.63;4953900;28;20059;-70
2022/06/03 03:05:54;;;;;;;13.85;10.13;;;;;;;24.20;54.98;99050.28;4950642;28;20051;-70
2022/06/03 03:08:26;;;;;;;13.70;10.15;;;;;;;24.53;54.14;99061.09;4973234;28;20050;-72
2022/06/03 03:11:14;;;;;;;16.83;11.15;;;;;;;24.64;53.49;99062.22;4972963;28;20055;-71
2022/06/03 03:14:17;;;;;;;15.40;10.20;;;;;;;24.43;54.49;99067.72;4972567;28;20118;-70
2022/06/03 03:17:08;;;;;;;15.32;10.18;;;;;;;24.52;54.32;99064.13;4972881;28;20077;-69
2022/06/03 03:19:50;;;;;;;15.75;10.07;;;;;;;24.69;53.40;99062.00;4954784;28;20074;-68
2022/06/03 03:22:15;;;;;;;16.10;9.82;;;;;;;25.02;53.04;99066.47;4939279;28;20045;-69
2022/06/03 03:24:50;;;;;;;13.95;9.07;;;;;;;25.40;51.63;99056.38;4972372;28;20145;-70
2022/06/03 03:27:47;;;;;;;16.10;9.55;;;;;;;25.53;51.22;99057.91;4972175;28;20085;-69
2022/06/03 03:30:18;;;;;;;16.52;9.18;;;;;;;25.86;50.80;99054.97;4946847;28;20058;-69
2022/06/03 03:33:03;;;;;;;12.48;8.75;;;;;;;26.18;50.02;99061.25;4939209;28;20058;-70
2022/06/03 03:35:43;;;;;;;12.85;8.45;;;;;;;26.42;48.96;99048.63;4972372;28;20062;-69
2022/06/03 03:38:25;;;;;;;10.95;8.60;;;;;;;26.52;48.65;99052.75;4972005;28;20047;-69
2022/06/03 03:41:23;;;;;;;11.55;8.68;;;;;;;26.53;48.52;99051.63;4955036;28;20523;-70
2022/06/03 03:44:06;;;;;;;11.85;8.70;;;;;;;26.72;47.88;99047.03;4954975;28;20057;-70
2022/06/03 03:47:11;;;;;;;11.35;8.45;;;;;;;26.71;47.75;99045.47;4972300;28;20042;-71
2022/06/03 03:50:18;;;;;;;15.18;8.80;;;;;;;26.93;47.09;99049.44;4972422;28;20050;-70
2022/06/03 03:53:21;;;;;;;14.70;9.52;;;;;;;26.91;47.63;99037.34;4972264;28;20464;-69
2022/06/03 03:55:56;;;;;;;10.43;8.30;;;;;;;26.65;48.05;99043.34;4972324;28;20082;-71
2022/06/03 03:58:25;;;;;;;16.75;8.93;;;;;;;26.55;48.25;99036.53;4972139;28;20062;-70
2022/06/03 04:01:34;;;;;;;12.38;8.65;;;;;;;26.62;48.11;99035.91;4974526;28;20053;-68
2022/06/03 04:04:23;;;;;;;13.30;9.13;;;;;;;26.28;49.04;99035.47;4967882;28;20415;-70
2022/06/03 04:07:22;;;;;;;15.10;9.23;;;;;;;25.99;49.92;99042.09;4974332;28;20127;-71
2022/06/03 04:10:16;;;;;;;13.10;7.95;;;;;;;25.73;50.35;99029.75;4942503;28;20102;-69
2022/06/03 04:12:56;;;;;;;17.65;8.68;;;;;;;25.24;51.54;99021.06;4975353;28;20058;-70
2022/06/03 04:16:05;;;;;;;16.02;8.38;;;;;;;25.03;51.81;99032.00;4975894;28;20039;-70
2022/06/03 04:18:59;;;;;;;16.25;8.52;;;;;;;24.70;53.21;99020.19;4958456;28;20124;-70
2022/06/03 04:21:41;;;;;;;15.98;8.07;;;;;;;24.63;53.05;99011.88;4975334;28;20129;-70
2022/06/03 04:24:28;;;;;;;15.43;8.15;;;;;;;25.05;52.38;99008.06;4958575;28;20045;-70
2022/06/03 04:27:15;;;;;;;10.73;7.72;;;;;;;25.37;51.26;98996.22;4975688;28;20564;-69
2022/06/03 04:30:05;;;;;;;16.90;8.77;;;;;;;25.51;50.87;99005.91;4975802;28;20483;-70
2022/06/03 04:32:46;;;;;;;11.95;7.38;;;;;;;25.80;50.35;99010.19;4975955;28;20050;-70
2022/06/03 04:35:46;;;;;;;14.43;7.85;;;;;;;26.07;49.63;99010.50;4974659;28;20130;-70
2022/06/03 04:39:00;;;;;;;10.35;7.03;;;;;;;25.88;50.73;99011.16;4958333;28;20047;-69
2022/06/03 04:42:03;;;;;;;16.65;7.65;;;;;;;26.22;49.77;99001.56;4953261;28;20051;-70
2022/06/03 04:44:58;;;;;;;8.80;6.32;;;;;;;26.72;48.54;99000.81;4975516;28;20046;-70
2022/06/03 04:47:24;;;;;;;9.38;7.10;;;;;;;26.47;49.02;98983.13;4957991;28;20094;-70
2022/06/03 04:50:14;;;;;;;12.88;8.15;;;;;;;26.28;49.27;98970.28;4975197;28;20058;-70
2022/06/03 04:52:43;;;;;;;13.68;7.65;;;;;;;26.29;49.56;98961.75;4940834;28;20049;-69
2022/06/03 04:55:27;;;;;;;13.05;7.53;;;;;;;26.10;49.76;98958.19;4931521;29;20047;-71
2022/06/03 04:58:27;;;;;;;13.43;8.05;;;;;;;26.03;49.81;98959.59;4971099;28;20061;-68
2022/06/03 05:00:56;;;;;;;13.75;7.72;;;;;;;26.19;49.65;98961.53;4975137;28;20046;-69
2022/06/03 05:03:56;;;;;;;11.50;7.47;;;;;;;26.12;49.68;98943.13;4974758;28;20074;-68
2022/06/03 05:06:47;;;;;;;13.52;7.63;;;;;;;25.89;50.78;98944.88;4974399;28;20042;-72
2022/06/03 05:09:46;;;;;;;12.27;8.05;;;;;;;25.79;50.82;98944.22;4974420;28;20137;-74
2022/06/03 05:12:20;;;;;;;12.50;7.88;;;;;;;25.67;51.04;98936.16;4958771;28;20513;-72
2022/06/03 05:15:23;;;;;;;17.40;8.20;;;;;;;25.67;51.03;98943.50;4973726;28;20054;-72
2022/06/03 05:17:51;;;;;;;17.25;7.90;;;;;;;25.63;51.04;98935.28;4974634;28;20058;-72
2022/06/03 05:20:20;;;;;;;13.05;7.40;;;;;;;25.65;50.77;98943.06;4957339;28;20046;-71
2022/06/03 05:22:51;;;;;;;11.52;7.25;;;;;;;25.78;50.74;98945.38;4957418;28;20303;-70
2022/06/03 05:26:08;;;;;;;10.25;7.43;;;;;;;25.78;50.51;98950.00;4941685;28;20074;-71
2022/06/03 05:28:57;;;;;;;13.05;7.80;;;;;;;25.90;50.13;98947.25;4956920;28;20050;-69
2022/06/03 05:31:41;;;;;;;18.00;7.43;;;;;;;25.96;50.13;98948.56;4966382;28;20515;-71
2022/06/03 05:34:38;;;;;;;19.25;7.72;;;;;;;26.04;50.18;98946.81;4957230;28;20097;-70
2022/06/03 05:37:34;;;;;;;10.00;7.22;;;;;;;25.95;50.71;98960.56;4940905;28;20097;-70
2022/06/03 05:40:34;;;;;;;13.95;8.27;;;;;;;25.94;50.66;98964.44;4955324;29;20071;-71
2022/06/03 05:43:12;;;;;;;18.75;8.50;;;;;;;25.93;51.23;98964.75;4954971;28;20082;-71
2022/06/03 05:46:07;;;;;;;17.13;8.20;;;;;;;26.21;51.04;98970.13;4956328;28;20055;-71
2022/06/03 05:49:02;;;;;;;13.70;6.85;;;;;;;26.29;50.63;98963.69;4940301;28;20125;-71
2022/06/03 05:51:46;;;;;;;12.25;7.32;;;;;;;25.86;51.15;98970.03;4956908;28;20073;-72
2022/06/03 05:54:21;;;;;;;13.07;7.20;;;;;;;25.66;51.50;98974.50;4956638;28;20051;-73
2022/06/03 05:57:11;;;;;;;12.50;7.50;;;;;;;25.48;52.44;98974.84;4940218;28;20570;-72
2022/06/03 06:00:08;;;;;;;10.63;7.43;;;;;;;25.82;51.90;98986.19;4956651;28;20137;-71
2022/06/03 06:02:42;;;;;;;13.13;7.53;;;;;;;25.94;51.70;98983.44;4973726;28;20407;-71
2022/06/03 06:05:13;;;;;;;12.02;7.32;;;;;;;26.03;51.80;98977.81;4941039;28;20412;-71
2022/06/03 06:07:50;;;;;;;11.18;7.60;;;;;;;25.89;51.50;98986.41;4955851;28;20607;-70
2022/06/03 06:10:19;;;;;;;13.50;6.93;;;;;;;25.65;52.07;98976.44;4974140;28;20508;-70
2022/06/03 06:13:09;;;;;;;12.15;7.20;;;;;;;25.28;52.54;98978.53;4973497;28;20079;-72
2022/06/03 06:16:00;;;;;;;15.68;8.85;;;;;;;24.89;54.05;98978.19;4956067;28;20077;-72
2022/06/03 06:18:25;;;;;;;15.23;8.13;;;;;;;24.53;55.32;98970.88;4973563;28;20456;-73
2022/06/03 06:20:54;;;;;;;9.68;7.35;;;;;;;24.18;55.83;98976.75;4956386;28;20058;-71
2022/06/03 06:23:20;;;;;;;11.13;8.88;;;;;;;23.86;56.88;98979.19;4972956;28;20524;-71
2022/06/03 06:26:08;;;;;;;16.77;8.85;;;;;;;23.67;58.36;98982.34;4972708;28;20131;-73
2022/06/03 06:28:42;;;;;;;16.42;9.50;;;;;;;23.41;59.97;98987.22;4973291;28;20129;-71
2022/06/03 06:31:20;;;;;;;12.48;9.90;;;;;;;22.92;62.06;98984.28;4972565;28;20083;-72
2022/06/03 06:34:04;;;;;;;14.93;10.73;;;;;;;22.50;65.09;98974.22;4955924;28;20129;-71
2022/06/03 06:36:48;;;;;;;14.95;10.77;;;;;;;22.38;68.81;98974.09;4947233;29;20055;-72
2022/06/03 06:39:46;;;;;;;12.88;11.38;;;;;;;22.11;67.74;98978.00;4920824;29;20446;-72
2022/06/03 06:42:39;;;;;;;17.65;14.27;;;;;;;22.09;66.92;98986.44;4900478;28;20062;-71
2022/06/03 06:45:23;;;;;;;15.55;10.50;;;;;;;22.17;67.03;98990.22;4959765;28;20579;-72
2022/06/03 06:48:15;;;;;;;15.52;10.52;;;;;;;22.25;66.54;98994.81;4954983;28;20456;-74
2022/06/03 06:50:42;;;;;;;12.00;10.48;;;;;;;22.10;66.11;98998.81;4955712;28;20051;-74
2022/06/03 06:53:52;;;;;;;13.07;10.85;;;;;;;21.84;66.98;99006.97;4939339;28;20038;-72
2022/06/03 06:56:23;;;;;;;;;;;;;;;21.62;68.05;98997.19;4952170;28;20046;-71
2022/06/03 06:58:57;;;;;;;12.57;10.95;;;;;;;21.36;67.89;98996.41;4972696;28;19922;-72
2022/06/03 07:02:04;;;;;;;16.98;11.85;;;;;;;20.99;69.74;99015.56;4954725;28;20154;-72
2022/06/03 07:04:35;;;;;;;16.20;11.45;;;;;;;20.50;74.11;99003.22;4954696;28;20101;-71
2022/06/03 07:07:19;;;;;;;13.43;11.88;;;;;;;20.22;75.20;99006.13;4972707;28;20050;-71
2022/06/03 07:10:00;;;;;;;14.82;11.77;;;;;;;20.03;78.00;99009.06;4955245;28;20069;-72
2022/06/03 07:12:38;;;;;;;16.65;13.32;;;;;;;19.98;78.43;99021.84;4972927;28;20043;-72
2022/06/03 07:15:06;;;;;;;16.95;12.13;;;;;;;19.87;76.83;99024.00;4972829;28;20516;-72
2022/06/03 07:21:13;;;;;;;12.50;9.95;;;;;;;19.59;76.47;99026.81;4911970;29;20052;-68
2022/06/03 07:23:50;;;;;;;14.02;9.85;;;;;;;19.47;77.23;99010.41;4939535;28;20038;-70
2022/06/03 07:26:22;;;;;;;12.18;9.85;;;;;;;19.48;77.03;99028.13;4939471;28;20042;-71
2022/06/03 07:29:06;;;;;;;14.13;9.45;;;;;;;19.49;77.76;99013.59;4955316;28;20035;-70
2022/06/03 07:31:40;;;;;;;12.43;10.10;;;;;;;19.55;76.47;98992.75;4972723;28;20042;-72
2022/06/03 07:34:17;;;;;;;16.33;10.63;;;;;;;19.65;76.29;98995.25;4955452;28;20150;-69
2022/06/03 07:36:48;;;;;;;13.38;8.75;;;;;;;19.69;75.85;99004.28;4938912;28;20476;-71
2022/06/03 07:39:29;;;;;;;10.75;8.27;;;;;;;19.70;73.11;98995.88;4982240;28;20078;-70
2022/06/03 07:42:11;;;;;;;10.75;8.48;;;;;;;19.77;74.47;98986.63;4935799;29;20051;-73
2022/06/03 07:45:02;;;;;;;9.02;8.13;;;;;;;19.91;73.45;98990.00;4979959;28;20455;-72
2022/06/03 07:47:29;;;;;;;13.10;7.63;;;;;;;20.00;71.90;98974.72;4920751;29;20059;-72
2022/06/03 07:49:58;;;;;;;10.15;8.52;;;;;;;20.07;71.16;98987.72;4920353;29;20520;-71
2022/06/03 07:52:37;;;;;;;12.73;9.23;;;;;;;20.33;71.58;98991.31;4953085;28;20074;-71
2022/06/03 07:55:12;;;;;;;12.20;9.57;;;;;;;20.57;70.45;98977.47;4920267;29;20051;-71
2022/06/03 07:57:39;;;;;;;11.55;8.50;;;;;;;20.84;69.62;98964.84;4975841;28;20057;-70
2022/06/03 08:00:14;;;;;;;11.65;8.90;;;;;;;21.21;68.66;98976.13;4908366;29;20094;-70
2022/06/03 08:02:40;;;;;;;9.55;8.43;;;;;;;21.54;66.94;98985.28;4972124;28;20046;-71
2022/06/03 08:05:08;;;;;;;9.23;8.30;;;;;;;21.80;65.94;98984.47;4991973;28;20096;-72
2022/06/03 08:13:17;;;;;;;12.50;8.00;;;;;;;;;;4968322;28;20050;-72
2022/06/03 08:15:53;;;;;;;9.80;7.95;;;;;;;23.19;60.87;98988.38;4976748;28;20049;-71
2022/06/03 08:18:19;;;;;;;20.50;11.48;;;;;;;23.33;59.93;98986.19;4955025;28;20098;-71
2022/06/03 08:20:48;;;;;;;12.55;8.90;;;;;;;23.41;58.96;98979.13;4954781;28;20097;-69
2022/06/03 08:23:16;;;;;;;10.37;8.47;;;;;;;23.49;60.28;98992.56;4954976;28;20496;-71
2022/06/03 08:25:44;;;;;;;8.35;7.45;;;;;;;23.59;59.53;98994.09;4967966;28;20534;-73
2022/06/03 08:28:15;;;;;;;10.05;7.40;;;;;;;23.78;59.35;98988.97;4953487;28;20054;-72
2022/06/03 08:30:41;;;;;;;8.88;7.72;;;;;;;23.82;57.88;98983.66;4970900;28;20093;-72
2022/06/03 08:33:10;;;;;;;7.38;6.60;;;;;;;23.96;57.06;98996.91;4949615;28;20101;-73
2022/06/03 08:35:39;;;;;;;7.75;6.97;;;;;;;23.99;56.77;98998.94;4954421;28;20057;-73
2022/06/03 08:38:06;;;;;;;9.15;6.72;;;;;;;23.97;56.08;99004.69;4959311;28;20445;-72
2022/06/03 08:40:47;;;;;;;10.45;8.10;;;;;;;24.15;56.21;98999.88;4960297;28;20065;-71
2022/06/03 08:43:29;;;;;;;8.15;6.80;;;;;;;24.22;55.62;99002.00;4942131;28;20492;-72
2022/06/03 08:46:11;;;;;;;7.18;6.47;;;;;;;24.35;54.98;99002.81;4972692;28;20043;-72
2022/06/03 08:48:45;;;;;;;8.30;6.55;;;;;;;24.44;54.55;99017.88;4975283;28;20039;-71
2022/06/03 08:51:16;;;;;;;8.15;6.65;;;;;;;24.26;53.78;99009.09;4952016;28;20042;-71
2022/06/03 08:53:50;;;;;;;7.97;5.85;;;;;;;23.96;54.48;99019.34;4942585;28;20057;-71
2022/06/03 08:56:19;;;;;;;8.70;6.13;;;;;;;23.78;54.79;99015.25;4957338;28;20043;-69
2022/06/03 08:59:01;;;;;;;7.32;6.10;;;;;;;23.48;55.77;99006.44;4955897;28;20471;-70
2022/06/03 09:01:37;;;;;;;6.30;5.45;;;;;;;23.27;56.71;99018.06;4955501;28;20039;-69
2022/06/03 09:04:10;;;;;;;6.90;5.40;;;;;;;23.09;56.75;99012.00;4955297;28;20050;-72
2022/06/03 09:07:28;;;;;;;6.10;5.50;;;;;;;23.04;56.14;99027.63;4956180;28;20051;-71
2022/06/03 09:10:03;;;;;;;6.90;5.70;;;;;;;23.19;56.06;99024.31;4969715;28;20431;-72
2022/06/03 09:12:29;;;;;;;6.43;5.78;;;;;;;23.38;55.92;99029.25;4939310;28;20063;-72
2022/06/03 09:15:00;;;;;;;6.90;6.13;;;;;;;23.63;55.77;99040.19;4974962;28;20129;-70
2022/06/03 09:17:43;;;;;;;9.50;6.63;;;;;;;23.43;56.05;99039.09;4956497;28;20035;-71
2022/06/03 09:20:15;;;;;;;6.35;5.72;;;;;;;23.17;56.89;99040.06;4974302;28;20074;-71
2022/06/03 09:22:41;;;;;;;7.20;6.20;;;;;;;23.39;56.71;99040.88;4956207;28;20171;-71
2022/06/03 09:25:10;;;;;;;7.53;6.03;;;;;;;23.56;56.69;99041.53;4940752;28;20459;-70
2022/06/03 09:27:37;;;;;;;7.38;6.20;;;;;;;23.63;55.55;99042.91;4955934;28;20057;-72
2022/06/03 09:30:06;;;;;;;7.45;5.70;;;;;;;23.68;55.18;99048.91;4973509;28;20053;-70
2022/06/03 09:32:37;;;;;;;9.10;6.18;;;;;;;23.70;55.52;99057.50;4949635;28;20038;-71
2022/06/03 09:35:08;;;;;;;7.13;6.07;;;;;;;23.71;55.42;99045.56;4955980;28;20053;-72
2022/06/03 09:37:36;;;;;;;6.95;6.20;;;;;;;23.69;54.67;99049.69;4940374;28;20042;-71
2022/06/03 09:40:04;;;;;;;8.35;6.85;;;;;;;23.64;55.01;99053.38;4954459;28;20432;-72
2022/06/03 09:42:31;;;;;;;8.80;6.72;;;;;;;23.26;55.72;99050.81;4955345;28;20089;-71
2022/06/03 09:45:16;;;;;;;7.15;6.45;;;;;;;22.88;56.30;99060.59;4957022;28;20146;-70
2022/06/03 09:47:44;;;;;;;9.57;6.38;;;;;;;22.65;56.60;99059.31;4921300;28;20121;-69
2022/06/03 09:50:14;;;;;;;8.70;6.63;;;;;;;22.53;58.04;99053.78;4908789;28;20515;-70
2022/06/03 09:52:40;;;;;;;10.57;7.28;;;;;;;22.44;57.81;99057.31;4918461;28;20089;-69
2022/06/03 09:55:25;;;;;;;8.40;7.13;;;;;;;22.38;58.53;99061.31;4906776;28;20043;-71
2022/06/03 09:57:52;;;;;;;8.55;7.18;;;;;;;22.39;58.64;99060.19;4953920;28;20047;-70
2022/06/03 10:00:26;;;;;;;8.15;6.95;;;;;;;22.29;58.45;99063.22;4935491;29;20059;-68
2022/06/03 10:02:56;;;;;;;10.95;7.63;;;;;;;21.98;59.05;99072.34;4938826;28;20098;-69
2022/06/03 10:05:22;;;;;;;8.95;7.22;;;;;;;21.66;60.49;99067.47;4927819;28;20049;-69
2022/06/03 10:07:53;;;;;;;10.18;7.95;;;;;;;21.54;61.13;99081.59;4923193;28;20073;-70
2022/06/03 10:13:07;;;;;;;9.10;8.15;;;;;;;21.19;61.84;99078.03;4955597;28;20034;-73
2022/06/03 10:15:39;;;;;;;8.23;7.32;;;;;;;21.00;62.73;99081.00;4973720;28;20054;-70
2022/06/03 10:18:44;;;;;;;9.13;8.20;;;;;;;20.84;63.81;99081.44;4909766;28;20061;-69
2022/06/03 10:21:11;;;;;;;10.38;8.43;;;;;;;20.84;63.57;99086.06;4972793;28;20047;-69
2022/06/03 10:23:52;;;;;;;9.63;8.13;;;;;;;20.82;63.77;99077.47;4973414;28;20089;-70
2022/06/03 10:26:21;;;;;;;9.32;8.35;;;;;;;20.82;63.32;99083.69;4974739;28;20066;-71
2022/06/03 10:28:49;;;;;;;9.18;8.25;;;;;;;20.81;63.78;99087.47;4939486;28;20113;-70
2022/06/03 10:31:36;;;;;;;8.52;7.30;;;;;;;20.70;63.91;99083.47;4955629;28;20499;-70
2022/06/03 10:34:11;;;;;;;9.93;6.28;;;;;;;20.61;62.33;99079.94;4955738;28;20051;-69
2022/06/03 10:36:45;;;;;;;6.97;5.60;;;;;;;20.60;61.56;99081.84;4973160;28;20058;-70
2022/06/03 10:39:16;;;;;;;5.60;5.10;;;;;;;20.64;61.52;99092.78;4956084;28;20051;-70
2022/06/03 10:41:45;;;;;;;9.73;6.38;;;;;;;20.76;61.20;99084.91;4972270;28;20051;-70
2022/06/03 10:44:17;;;;;;;10.35;6.35;;;;;;;21.02;59.98;99089.59;4937803;28;20049;-70
2022/06/03 10:47:02;;;;;;;7.60;6.18;;;;;;;21.17;60.09;99089.13;4970360;28;20062;-70
2022/06/03 10:49:35;;;;;;;6.03;5.53;;;;;;;21.23;59.24;99085.16;4955968;28;20074;-70
2022/06/03 11:03:27;;;;;;;13.25;9.48;;;;;;;20.50;59.05;99127.06;4971008;28;20043;-70
2022/06/03 11:05:53;;;;;;;9.02;8.15;;;;;;;20.68;58.46;99142.25;4970645;28;20050;-70
2022/06/03 11:08:21;;;;;;;10.20;9.20;;;;;;;20.83;58.79;99159.91;4953314;28;20042;-70
2022/06/03 11:10:52;;;;;;;11.63;9.07;;;;;;;20.91;58.63;99171.81;4953627;28;20039;-70
2022/06/03 11:13:38;;;;;;;12.40;11.05;;;;;;;20.38;59.81;99174.22;4971420;28;20063;-70
2022/06/03 11:16:21;;;;;;;12.85;11.40;;;;;;;20.02;60.17;99197.69;4972014;28;20070;-70
2022/06/03 11:18:47;;;;;;;12.23;10.95;;;;;;;19.73;60.53;99199.63;4955032;28;20047;-71
2022/06/03 11:21:25;;;;;;;12.75;10.77;;;;;;;19.41;60.82;99205.13;4953407;28;20129;-70
2022/06/03 11:23:52;;;;;;;12.27;10.98;;;;;;;19.06;62.28;99213.63;4971732;28;20053;-70
2022/06/03 11:26:18;;;;;;;13.88;10.07;;;;;;;18.94;62.31;99217.88;4970036;28;20039;-71
2022/06/03 11:28:54;;;;;;;12.93;9.05;;;;;;;18.73;62.17;99225.47;4972478;28;20066;-71
2022/06/03 11:31:46;;;;;;;9.68;8.68;;;;;;;18.64;62.46;99229.91;4953478;28;20047;-70
2022/06/03 11:34:54;;;;;;;9.68;8.68;;;;;;;18.57;62.33;99238.34;4951704;28;20049;-70
2022/06/03 11:37:25;;;;;;;15.82;8.23;;;;;;;18.55;61.98;99224.41;4962271;28;20062;-70
2022/06/03 11:39:59;;;;;;;7.90;6.80;;;;;;;18.77;60.38;99234.56;4936593;28;20093;-69
2022/06/03 11:42:46;;;;;;;8.18;7.38;;;;;;;19.19;60.05;99236.22;4953190;28;20133;-72
2022/06/03 11:45:18;;;;;;;7.18;6.45;;;;;;;19.28;58.88;99253.22;4951157;29;20070;-71
2022/06/03 11:47:54;;;;;;;7.38;6.35;;;;;;;19.17;59.54;99248.34;4949544;28;20047;-71
2022/06/03 11:50:23;;;;;;;9.30;6.38;;;;;;;19.13;59.21;99250.84;4953076;28;20389;-70
2022/06/03 11:52:50;;;;;;;9.07;6.30;;;;;;;19.10;58.92;99250.63;4970444;28;20177;-70
2022/06/03 11:55:20;;;;;;;9.48;5.82;;;;;;;18.89;58.99;99253.69;4954733;28;20508;-69
2022/06/03 11:57:56;;;;;;;6.65;5.82;;;;;;;18.93;59.25;99257.34;4954950;28;20066;-69
2022/06/03 12:00:22;;;;;;;7.03;6.43;;;;;;;19.01;59.47;99253.22;4954534;28;20516;-70
2022/06/03 12:03:09;;;;;;;6.20;5.20;;;;;;;19.03;58.61;99245.63;4971257;28;20504;-70
2022/06/03 12:05:42;;;;;;;6.25;5.00;;;;;;;19.01;58.24;99247.84;4972214;28;20054;-71
2022/06/03 12:08:22;;;;;;;6.95;5.22;;;;;;;18.86;58.83;99256.97;4954490;28;20620;-71
2022/06/03 12:10:56;;;;;;;;;;;;;;;18.79;58.86;99246.59;4953826;28;20054;-71
2022/06/03 12:13:28;;;;;;;6.65;5.43;;;;;;;18.73;58.83;99258.50;4951721;28;19973;-70
2022/06/03 12:15:54;;;;;;;5.65;5.05;;;;;;;18.68;59.79;99252.38;4970546;28;20059;-70
2022/06/03 12:18:32;;;;;;;7.95;5.00;;;;;;;18.63;59.45;99255.97;4971850;28;20049;-71
2022/06/03 12:21:05;;;;;;;9.10;5.40;;;;;;;18.60;59.94;99253.88;4972170;28;20049;-71
2022/06/03 12:23:37;;;;;;;9.68;5.32;;;;;;;18.55;60.16;99260.09;4958270;28;20039;-70
2022/06/03 12:26:06;;;;;;;8.80;5.25;;;;;;;18.36;60.43;99262.81;4957462;28;20066;-70
2022/06/03 12:28:39;;;;;;;6.45;5.00;;;;;;;18.31;61.05;99268.25;4958441;28;20074;-70
2022/06/03 12:31:35;;;;;;;7.80;5.30;;;;;;;18.02;62.41;99275.66;4975144;28;20053;-70
2022/06/03 12:34:03;;;;;;;5.75;4.72;;;;;;;17.84;62.88;99274.56;4975419;28;20038;-69
2022/06/03 12:36:47;;;;;;;5.20;4.70;;;;;;;17.86;62.42;99281.22;4974738;28;20397;-72
2022/06/03 12:39:26;;;;;;;9.25;5.05;;;;;;;17.79;62.34;99279.97;4975589;28;20532;-69
2022/06/03 12:42:26;;;;;;;9.40;4.60;;;;;;;17.62;62.78;99289.28;4975258;28;20069;-70
2022/06/03 12:45:03;;;;;;;14.85;7.53;;;;;;;17.59;62.82;99289.84;4975073;28;20073;-70
2022/06/03 12:47:32;;;;;;;8.02;4.68;;;;;;;17.45;63.75;99299.66;4957633;28;20058;-69
2022/06/03 12:50:05;;;;;;;7.63;5.13;;;;;;;17.38;64.12;99302.69;4957849;28;20042;-69
2022/06/03 12:52:31;;;;;;;12.13;5.43;;;;;;;17.25;63.94;99298.78;4957568;28;20038;-70
2022/06/03 12:55:05;;;;;;;7.47;5.22;;;;;;;17.09;64.35;99307.22;4975101;28;20081;-69
2022/06/03 12:57:39;;;;;;;7.22;4.70;;;;;;;16.85;64.57;99307.97;4941817;28;20047;-71
2022/06/03 13:00:07;;;;;;;5.60;4.95;;;;;;;16.81;64.73;99309.63;4957859;28;20133;-67